sensor_id;sensor_type;location;lat;lon;timestamp;P1;durP1;ratioP1;P2;durP2;ratioP2
28022;SDS011;67403;50.104;8.758;2023-02-11T00:00:34;47.40;;;20.48;;
28022;SDS011;67403;50.104;8.758;2023-02-11T00:03:04;42.90;;;18.67;;
28022;SDS011;67403;50.104;8.758;2023-02-11T00:05:31;40.28;;;18.70;;
28022;SDS011;67403;50.104;8.758;2023-02-11T00:07:58;44.65;;;19.48;;
28022;SDS011;67403;50.104;8.758;2023-02-11T00:10:26;44.63;;;19.48;;
28022;SDS011;67403;50.104;8.758;2023-02-11T00:12:53;47.83;;;19.48;;
28022;SDS011;67403;50.104;8.758;2023-02-11T00:15:20;42.55;;;17.75;;
28022;SDS011;67403;50.104;8.758;2023-02-11T00:17:47;45.30;;;18.63;;
28022;SDS011;67403;50.104;8.758;2023-02-11T00:20:14;55.78;;;20.77;;
28022;SDS011;67403;50.104;8.758;2023-02-11T00:22:41;40.33;;;18.58;;
28022;SDS011;67403;50.104;8.758;2023-02-11T00:25:07;47.35;;;19.25;;
28022;SDS011;67403;50.104;8.758;2023-02-11T00:27:36;38.17;;;16.80;;
28022;SDS011;67403;50.104;8.758;2023-02-11T00:30:03;54.55;;;17.88;;
28022;SDS011;67403;50.104;8.758;2023-02-11T00:32:31;42.15;;;18.40;;
28022;SDS011;67403;50.104;8.758;2023-02-11T00:34:58;40.75;;;18.52;;
28022;SDS011;67403;50.104;8.758;2023-02-11T00:37:25;44.05;;;19.90;;
28022;SDS011;67403;50.104;8.758;2023-02-11T00:39:52;40.60;;;17.70;;
28022;SDS011;67403;50.104;8.758;2023-02-11T00:42:19;43.80;;;18.48;;
28022;SDS011;67403;50.104;8.758;2023-02-11T00:44:47;50.35;;;20.23;;
28022;SDS011;67403;50.104;8.758;2023-02-11T00:47:14;45.40;;;17.85;;
28022;SDS011;67403;50.104;8.758;2023-02-11T00:49:41;42.28;;;17.50;;
28022;SDS011;67403;50.104;8.758;2023-02-11T00:52:08;45.10;;;19.15;;
28022;SDS011;67403;50.104;8.758;2023-02-11T00:54:35;46.65;;;18.63;;
28022;SDS011;67403;50.104;8.758;2023-02-11T00:57:02;37.97;;;17.77;;
28022;SDS011;67403;50.104;8.758;2023-02-11T00:59:29;42.22;;;18.10;;
28022;SDS011;67403;50.104;8.758;2023-02-11T01:01:57;44.03;;;17.27;;
28022;SDS011;67403;50.104;8.758;2023-02-11T01:04:24;42.15;;;18.02;;
28022;SDS011;67403;50.104;8.758;2023-02-11T01:06:51;45.97;;;20.13;;
28022;SDS011;67403;50.104;8.758;2023-02-11T01:09:18;42.42;;;17.42;;
28022;SDS011;67403;50.104;8.758;2023-02-11T01:11:45;45.38;;;17.52;;
28022;SDS011;67403;50.104;8.758;2023-02-11T01:14:12;44.58;;;20.23;;
28022;SDS011;67403;50.104;8.758;2023-02-11T01:16:39;38.30;;;18.15;;
28022;SDS011;67403;50.104;8.758;2023-02-11T01:19:08;53.63;;;19.75;;
28022;SDS011;67403;50.104;8.758;2023-02-11T01:21:34;37.92;;;17.20;;
28022;SDS011;67403;50.104;8.758;2023-02-11T01:24:01;46.40;;;16.92;;
28022;SDS011;67403;50.104;8.758;2023-02-11T01:26:28;42.08;;;18.80;;
28022;SDS011;67403;50.104;8.758;2023-02-11T01:28:55;44.15;;;18.73;;
28022;SDS011;67403;50.104;8.758;2023-02-11T01:31:24;45.28;;;18.70;;
28022;SDS011;67403;50.104;8.758;2023-02-11T01:33:51;40.75;;;17.63;;
28022;SDS011;67403;50.104;8.758;2023-02-11T01:36:19;39.20;;;17.38;;
28022;SDS011;67403;50.104;8.758;2023-02-11T01:38:46;48.38;;;18.15;;
28022;SDS011;67403;50.104;8.758;2023-02-11T01:41:14;43.65;;;19.20;;
28022;SDS011;67403;50.104;8.758;2023-02-11T01:43:42;45.40;;;19.80;;
28022;SDS011;67403;50.104;8.758;2023-02-11T01:46:13;46.63;;;18.27;;
28022;SDS011;67403;50.104;8.758;2023-02-11T01:48:49;41.45;;;18.60;;
28022;SDS011;67403;50.104;8.758;2023-02-11T01:51:23;37.97;;;17.40;;
28022;SDS011;67403;50.104;8.758;2023-02-11T01:53:52;42.50;;;17.80;;
28022;SDS011;67403;50.104;8.758;2023-02-11T01:56:40;47.92;;;18.00;;
28022;SDS011;67403;50.104;8.758;2023-02-11T01:59:29;39.15;;;17.52;;
28022;SDS011;67403;50.104;8.758;2023-02-11T02:02:01;42.42;;;17.27;;
28022;SDS011;67403;50.104;8.758;2023-02-11T02:04:34;43.13;;;20.08;;
28022;SDS011;67403;50.104;8.758;2023-02-11T02:07:09;39.97;;;16.10;;
28022;SDS011;67403;50.104;8.758;2023-02-11T02:09:40;41.50;;;18.40;;
28022;SDS011;67403;50.104;8.758;2023-02-11T02:12:11;45.45;;;19.23;;
28022;SDS011;67403;50.104;8.758;2023-02-11T02:14:38;46.53;;;17.33;;
28022;SDS011;67403;50.104;8.758;2023-02-11T02:17:06;39.13;;;17.40;;
28022;SDS011;67403;50.104;8.758;2023-02-11T02:25:53;42.75;;;18.98;;
28022;SDS011;67403;50.104;8.758;2023-02-11T02:28:52;43.78;;;17.80;;
28022;SDS011;67403;50.104;8.758;2023-02-11T02:31:39;40.95;;;16.73;;
28022;SDS011;67403;50.104;8.758;2023-02-11T02:34:20;41.40;;;17.92;;
28022;SDS011;67403;50.104;8.758;2023-02-11T02:36:55;46.90;;;20.95;;
28022;SDS011;67403;50.104;8.758;2023-02-11T02:39:28;44.97;;;20.38;;
28022;SDS011;67403;50.104;8.758;2023-02-11T02:41:58;44.65;;;17.63;;
28022;SDS011;67403;50.104;8.758;2023-02-11T02:44:25;46.60;;;16.50;;
28022;SDS011;67403;50.104;8.758;2023-02-11T02:46:52;42.30;;;17.63;;
28022;SDS011;67403;50.104;8.758;2023-02-11T02:49:20;40.80;;;18.95;;
28022;SDS011;67403;50.104;8.758;2023-02-11T02:51:53;43.40;;;18.67;;
28022;SDS011;67403;50.104;8.758;2023-02-11T02:54:42;43.40;;;17.00;;
28022;SDS011;67403;50.104;8.758;2023-02-11T02:57:28;39.00;;;16.45;;
28022;SDS011;67403;50.104;8.758;2023-02-11T03:00:02;43.00;;;17.45;;
28022;SDS011;67403;50.104;8.758;2023-02-11T03:02:39;36.70;;;17.10;;
28022;SDS011;67403;50.104;8.758;2023-02-11T03:05:18;51.78;;;16.30;;
28022;SDS011;67403;50.104;8.758;2023-02-11T03:07:54;44.45;;;18.67;;
28022;SDS011;67403;50.104;8.758;2023-02-11T03:10:25;48.33;;;19.48;;
28022;SDS011;67403;50.104;8.758;2023-02-11T03:12:55;50.70;;;18.48;;
28022;SDS011;67403;50.104;8.758;2023-02-11T03:15:23;41.13;;;18.10;;
28022;SDS011;67403;50.104;8.758;2023-02-11T03:17:54;48.30;;;17.60;;
28022;SDS011;67403;50.104;8.758;2023-02-11T03:22:53;41.10;;;16.00;;
28022;SDS011;67403;50.104;8.758;2023-02-11T03:25:25;35.72;;;15.73;;
28022;SDS011;67403;50.104;8.758;2023-02-11T03:27:56;44.70;;;17.50;;
28022;SDS011;67403;50.104;8.758;2023-02-11T03:30:29;42.50;;;18.63;;
28022;SDS011;67403;50.104;8.758;2023-02-11T03:33:01;43.17;;;16.80;;
28022;SDS011;67403;50.104;8.758;2023-02-11T03:35:34;47.78;;;16.48;;
28022;SDS011;67403;50.104;8.758;2023-02-11T03:38:07;43.97;;;17.42;;
28022;SDS011;67403;50.104;8.758;2023-02-11T03:40:38;35.25;;;15.65;;
28022;SDS011;67403;50.104;8.758;2023-02-11T03:43:08;45.53;;;17.63;;
28022;SDS011;67403;50.104;8.758;2023-02-11T03:45:41;38.60;;;16.17;;
28022;SDS011;67403;50.104;8.758;2023-02-11T03:48:11;37.17;;;15.70;;
28022;SDS011;67403;50.104;8.758;2023-02-11T03:50:42;40.38;;;17.63;;
28022;SDS011;67403;50.104;8.758;2023-02-11T03:53:12;34.83;;;16.00;;
28022;SDS011;67403;50.104;8.758;2023-02-11T03:55:40;39.83;;;17.35;;
28022;SDS011;67403;50.104;8.758;2023-02-11T03:58:09;35.95;;;16.45;;
28022;SDS011;67403;50.104;8.758;2023-02-11T04:00:37;48.35;;;18.13;;
28022;SDS011;67403;50.104;8.758;2023-02-11T04:03:06;37.10;;;17.30;;
28022;SDS011;67403;50.104;8.758;2023-02-11T04:05:34;39.75;;;17.45;;
28022;SDS011;67403;50.104;8.758;2023-02-11T04:08:02;40.67;;;16.10;;
28022;SDS011;67403;50.104;8.758;2023-02-11T04:10:30;34.65;;;14.90;;
28022;SDS011;67403;50.104;8.758;2023-02-11T04:13:16;41.13;;;16.13;;
28022;SDS011;67403;50.104;8.758;2023-02-11T04:16:03;41.08;;;15.75;;
28022;SDS011;67403;50.104;8.758;2023-02-11T04:18:50;42.67;;;16.33;;
28022;SDS011;67403;50.104;8.758;2023-02-11T04:21:37;35.53;;;15.95;;
28022;SDS011;67403;50.104;8.758;2023-02-11T04:24:25;40.40;;;16.50;;
28022;SDS011;67403;50.104;8.758;2023-02-11T04:27:12;39.60;;;16.33;;
28022;SDS011;67403;50.104;8.758;2023-02-11T04:29:52;41.75;;;17.23;;
28022;SDS011;67403;50.104;8.758;2023-02-11T04:32:19;32.67;;;15.27;;
28022;SDS011;67403;50.104;8.758;2023-02-11T04:34:46;41.33;;;16.15;;
28022;SDS011;67403;50.104;8.758;2023-02-11T04:37:13;48.35;;;16.83;;
28022;SDS011;67403;50.104;8.758;2023-02-11T04:39:42;40.35;;;16.02;;
28022;SDS011;67403;50.104;8.758;2023-02-11T04:42:08;35.78;;;16.23;;
28022;SDS011;67403;50.104;8.758;2023-02-11T04:44:35;35.30;;;15.50;;
28022;SDS011;67403;50.104;8.758;2023-02-11T04:47:02;40.95;;;16.17;;
28022;SDS011;67403;50.104;8.758;2023-02-11T04:49:29;34.58;;;14.55;;
28022;SDS011;67403;50.104;8.758;2023-02-11T04:51:56;38.42;;;15.25;;
28022;SDS011;67403;50.104;8.758;2023-02-11T04:54:23;38.15;;;17.17;;
28022;SDS011;67403;50.104;8.758;2023-02-11T04:56:51;33.75;;;15.60;;
28022;SDS011;67403;50.104;8.758;2023-02-11T04:59:18;31.08;;;13.88;;
28022;SDS011;67403;50.104;8.758;2023-02-11T05:01:45;34.95;;;15.32;;
28022;SDS011;67403;50.104;8.758;2023-02-11T05:04:12;35.75;;;15.82;;
28022;SDS011;67403;50.104;8.758;2023-02-11T05:06:39;30.77;;;13.30;;
28022;SDS011;67403;50.104;8.758;2023-02-11T05:09:05;34.10;;;15.98;;
28022;SDS011;67403;50.104;8.758;2023-02-11T05:11:33;35.22;;;15.07;;
28022;SDS011;67403;50.104;8.758;2023-02-11T05:14:02;36.10;;;16.63;;
28022;SDS011;67403;50.104;8.758;2023-02-11T05:16:29;33.58;;;16.33;;
28022;SDS011;67403;50.104;8.758;2023-02-11T05:18:56;33.28;;;14.52;;
28022;SDS011;67403;50.104;8.758;2023-02-11T05:21:23;42.58;;;15.55;;
28022;SDS011;67403;50.104;8.758;2023-02-11T05:23:50;37.60;;;16.45;;
28022;SDS011;67403;50.104;8.758;2023-02-11T05:26:17;32.22;;;14.23;;
28022;SDS011;67403;50.104;8.758;2023-02-11T05:28:44;37.20;;;15.23;;
28022;SDS011;67403;50.104;8.758;2023-02-11T05:31:12;35.20;;;15.80;;
28022;SDS011;67403;50.104;8.758;2023-02-11T05:33:41;34.85;;;14.73;;
28022;SDS011;67403;50.104;8.758;2023-02-11T05:36:09;32.30;;;15.52;;
28022;SDS011;67403;50.104;8.758;2023-02-11T05:38:37;30.00;;;14.13;;
28022;SDS011;67403;50.104;8.758;2023-02-11T05:41:06;35.90;;;15.18;;
28022;SDS011;67403;50.104;8.758;2023-02-11T05:43:33;41.97;;;16.27;;
28022;SDS011;67403;50.104;8.758;2023-02-11T05:46:01;33.45;;;16.30;;
28022;SDS011;67403;50.104;8.758;2023-02-11T05:48:29;39.30;;;15.27;;
28022;SDS011;67403;50.104;8.758;2023-02-11T05:50:57;33.72;;;16.10;;
28022;SDS011;67403;50.104;8.758;2023-02-11T05:53:23;26.35;;;13.35;;
28022;SDS011;67403;50.104;8.758;2023-02-11T05:55:50;31.38;;;13.88;;
28022;SDS011;67403;50.104;8.758;2023-02-11T05:58:17;27.27;;;14.68;;
28022;SDS011;67403;50.104;8.758;2023-02-11T06:00:44;40.05;;;16.42;;
28022;SDS011;67403;50.104;8.758;2023-02-11T06:03:11;35.03;;;15.77;;
28022;SDS011;67403;50.104;8.758;2023-02-11T06:05:40;33.47;;;15.00;;
28022;SDS011;67403;50.104;8.758;2023-02-11T06:08:07;37.53;;;15.63;;
28022;SDS011;67403;50.104;8.758;2023-02-11T06:10:34;33.22;;;15.00;;
28022;SDS011;67403;50.104;8.758;2023-02-11T06:13:01;31.90;;;14.02;;
28022;SDS011;67403;50.104;8.758;2023-02-11T06:15:28;35.97;;;15.15;;
28022;SDS011;67403;50.104;8.758;2023-02-11T06:17:55;32.80;;;15.93;;
28022;SDS011;67403;50.104;8.758;2023-02-11T06:20:22;39.97;;;15.13;;
28022;SDS011;67403;50.104;8.758;2023-02-11T06:22:50;40.20;;;16.60;;
28022;SDS011;67403;50.104;8.758;2023-02-11T06:25:17;39.28;;;14.93;;
28022;SDS011;67403;50.104;8.758;2023-02-11T06:27:44;42.35;;;16.15;;
28022;SDS011;67403;50.104;8.758;2023-02-11T06:30:11;36.25;;;17.25;;
28022;SDS011;67403;50.104;8.758;2023-02-11T06:32:39;30.83;;;15.10;;
28022;SDS011;67403;50.104;8.758;2023-02-11T06:35:06;34.60;;;15.30;;
28022;SDS011;67403;50.104;8.758;2023-02-11T06:37:33;40.58;;;16.80;;
28022;SDS011;67403;50.104;8.758;2023-02-11T06:40:02;31.42;;;14.25;;
28022;SDS011;67403;50.104;8.758;2023-02-11T06:42:29;37.95;;;16.00;;
28022;SDS011;67403;50.104;8.758;2023-02-11T06:44:56;41.30;;;16.42;;
28022;SDS011;67403;50.104;8.758;2023-02-11T06:47:22;33.00;;;14.65;;
28022;SDS011;67403;50.104;8.758;2023-02-11T06:49:50;28.48;;;14.25;;
28022;SDS011;67403;50.104;8.758;2023-02-11T06:52:17;38.80;;;14.68;;
28022;SDS011;67403;50.104;8.758;2023-02-11T06:54:44;28.13;;;14.27;;
28022;SDS011;67403;50.104;8.758;2023-02-11T06:57:12;34.53;;;14.93;;
28022;SDS011;67403;50.104;8.758;2023-02-11T06:59:39;33.60;;;14.07;;
28022;SDS011;67403;50.104;8.758;2023-02-11T07:02:07;38.10;;;15.77;;
28022;SDS011;67403;50.104;8.758;2023-02-11T07:04:35;35.72;;;14.32;;
28022;SDS011;67403;50.104;8.758;2023-02-11T07:07:02;36.65;;;15.18;;
28022;SDS011;67403;50.104;8.758;2023-02-11T07:09:29;31.08;;;13.88;;
28022;SDS011;67403;50.104;8.758;2023-02-11T07:11:55;32.92;;;15.18;;
28022;SDS011;67403;50.104;8.758;2023-02-11T07:14:24;31.88;;;14.95;;
28022;SDS011;67403;50.104;8.758;2023-02-11T07:16:51;24.33;;;12.90;;
28022;SDS011;67403;50.104;8.758;2023-02-11T07:19:17;38.50;;;14.60;;
28022;SDS011;67403;50.104;8.758;2023-02-11T07:21:44;40.95;;;16.63;;
28022;SDS011;67403;50.104;8.758;2023-02-11T07:24:13;33.35;;;13.95;;
28022;SDS011;67403;50.104;8.758;2023-02-11T07:26:40;29.08;;;13.02;;
28022;SDS011;67403;50.104;8.758;2023-02-11T07:29:07;35.97;;;13.40;;
28022;SDS011;67403;50.104;8.758;2023-02-11T07:31:35;28.00;;;13.32;;
28022;SDS011;67403;50.104;8.758;2023-02-11T07:34:02;34.65;;;14.52;;
28022;SDS011;67403;50.104;8.758;2023-02-11T07:36:29;35.50;;;14.55;;
28022;SDS011;67403;50.104;8.758;2023-02-11T07:38:57;29.52;;;14.00;;
28022;SDS011;67403;50.104;8.758;2023-02-11T07:41:24;31.52;;;14.65;;
28022;SDS011;67403;50.104;8.758;2023-02-11T07:43:51;34.20;;;14.85;;
28022;SDS011;67403;50.104;8.758;2023-02-11T07:46:20;32.38;;;13.35;;
28022;SDS011;67403;50.104;8.758;2023-02-11T07:48:49;37.85;;;15.10;;
28022;SDS011;67403;50.104;8.758;2023-02-11T07:51:16;34.35;;;13.75;;
28022;SDS011;67403;50.104;8.758;2023-02-11T07:53:45;32.65;;;14.18;;
28022;SDS011;67403;50.104;8.758;2023-02-11T07:56:13;35.55;;;14.88;;
28022;SDS011;67403;50.104;8.758;2023-02-11T07:58:41;38.50;;;15.27;;
28022;SDS011;67403;50.104;8.758;2023-02-11T08:01:09;32.33;;;15.00;;
28022;SDS011;67403;50.104;8.758;2023-02-11T08:03:37;34.80;;;13.55;;
28022;SDS011;67403;50.104;8.758;2023-02-11T08:06:08;31.02;;;13.10;;
28022;SDS011;67403;50.104;8.758;2023-02-11T08:08:36;28.88;;;13.65;;
28022;SDS011;67403;50.104;8.758;2023-02-11T08:11:06;30.90;;;14.13;;
28022;SDS011;67403;50.104;8.758;2023-02-11T08:16:00;27.27;;;12.93;;
28022;SDS011;67403;50.104;8.758;2023-02-11T08:18:28;33.22;;;13.02;;
28022;SDS011;67403;50.104;8.758;2023-02-11T08:20:55;30.02;;;14.18;;
28022;SDS011;67403;50.104;8.758;2023-02-11T08:23:23;37.83;;;14.32;;
28022;SDS011;67403;50.104;8.758;2023-02-11T08:25:50;34.75;;;13.90;;
28022;SDS011;67403;50.104;8.758;2023-02-11T08:28:17;32.78;;;15.13;;
28022;SDS011;67403;50.104;8.758;2023-02-11T08:30:44;36.35;;;14.90;;
28022;SDS011;67403;50.104;8.758;2023-02-11T08:33:10;29.77;;;14.77;;
28022;SDS011;67403;50.104;8.758;2023-02-11T08:35:37;28.35;;;13.27;;
28022;SDS011;67403;50.104;8.758;2023-02-11T08:38:05;35.00;;;13.88;;
28022;SDS011;67403;50.104;8.758;2023-02-11T08:40:34;30.25;;;14.82;;
28022;SDS011;67403;50.104;8.758;2023-02-11T08:43:01;35.88;;;15.50;;
28022;SDS011;67403;50.104;8.758;2023-02-11T08:45:28;35.30;;;14.73;;
28022;SDS011;67403;50.104;8.758;2023-02-11T08:47:55;28.13;;;14.75;;
28022;SDS011;67403;50.104;8.758;2023-02-11T08:50:21;30.60;;;14.18;;
28022;SDS011;67403;50.104;8.758;2023-02-11T08:52:48;31.45;;;15.10;;
28022;SDS011;67403;50.104;8.758;2023-02-11T08:55:16;35.08;;;14.35;;
28022;SDS011;67403;50.104;8.758;2023-02-11T08:57:44;30.13;;;13.95;;
28022;SDS011;67403;50.104;8.758;2023-02-11T09:00:12;31.58;;;14.50;;
28022;SDS011;67403;50.104;8.758;2023-02-11T09:02:40;34.63;;;15.88;;
28022;SDS011;67403;50.104;8.758;2023-02-11T09:05:07;33.13;;;14.80;;
28022;SDS011;67403;50.104;8.758;2023-02-11T09:07:34;31.73;;;14.52;;
28022;SDS011;67403;50.104;8.758;2023-02-11T09:10:01;34.83;;;15.05;;
28022;SDS011;67403;50.104;8.758;2023-02-11T09:12:28;32.35;;;14.68;;
28022;SDS011;67403;50.104;8.758;2023-02-11T09:14:56;35.53;;;15.85;;
28022;SDS011;67403;50.104;8.758;2023-02-11T09:17:23;34.20;;;16.10;;
28022;SDS011;67403;50.104;8.758;2023-02-11T09:19:50;33.42;;;14.63;;
28022;SDS011;67403;50.104;8.758;2023-02-11T09:22:17;33.08;;;13.80;;
28022;SDS011;67403;50.104;8.758;2023-02-11T09:24:44;37.50;;;15.35;;
28022;SDS011;67403;50.104;8.758;2023-02-11T09:27:11;33.05;;;14.27;;
28022;SDS011;67403;50.104;8.758;2023-02-11T09:29:38;34.38;;;13.73;;
28022;SDS011;67403;50.104;8.758;2023-02-11T09:32:06;37.25;;;14.70;;
28022;SDS011;67403;50.104;8.758;2023-02-11T09:34:33;35.17;;;14.77;;
28022;SDS011;67403;50.104;8.758;2023-02-11T09:37:00;37.63;;;14.55;;
28022;SDS011;67403;50.104;8.758;2023-02-11T09:39:27;34.28;;;16.00;;
28022;SDS011;67403;50.104;8.758;2023-02-11T09:44:45;32.13;;;14.88;;
28022;SDS011;67403;50.104;8.758;2023-02-11T09:47:18;32.92;;;15.18;;
28022;SDS011;67403;50.104;8.758;2023-02-11T09:49:52;39.13;;;16.98;;
28022;SDS011;67403;50.104;8.758;2023-02-11T09:52:26;32.08;;;14.90;;
28022;SDS011;67403;50.104;8.758;2023-02-11T09:54:59;34.30;;;15.82;;
28022;SDS011;67403;50.104;8.758;2023-02-11T09:57:28;35.53;;;16.48;;
28022;SDS011;67403;50.104;8.758;2023-02-11T09:59:58;35.05;;;14.82;;
28022;SDS011;67403;50.104;8.758;2023-02-11T10:02:28;35.22;;;16.45;;
28022;SDS011;67403;50.104;8.758;2023-02-11T10:05:16;35.97;;;15.68;;
28022;SDS011;67403;50.104;8.758;2023-02-11T10:07:53;39.92;;;15.93;;
28022;SDS011;67403;50.104;8.758;2023-02-11T10:10:38;32.92;;;15.32;;
28022;SDS011;67403;50.104;8.758;2023-02-11T10:13:24;34.22;;;15.40;;
28022;SDS011;67403;50.104;8.758;2023-02-11T10:16:03;33.30;;;15.73;;
28022;SDS011;67403;50.104;8.758;2023-02-11T10:18:43;33.30;;;16.08;;
28022;SDS011;67403;50.104;8.758;2023-02-11T10:21:21;35.35;;;16.67;;
28022;SDS011;67403;50.104;8.758;2023-02-11T10:23:58;34.00;;;16.13;;
28022;SDS011;67403;50.104;8.758;2023-02-11T10:26:28;30.60;;;13.70;;
28022;SDS011;67403;50.104;8.758;2023-02-11T10:28:58;39.45;;;16.30;;
28022;SDS011;67403;50.104;8.758;2023-02-11T10:31:34;31.98;;;16.23;;
28022;SDS011;67403;50.104;8.758;2023-02-11T10:34:06;33.15;;;14.63;;
28022;SDS011;67403;50.104;8.758;2023-02-11T10:36:35;34.70;;;16.55;;
28022;SDS011;67403;50.104;8.758;2023-02-11T10:39:08;34.78;;;15.48;;
28022;SDS011;67403;50.104;8.758;2023-02-11T10:41:38;31.17;;;14.90;;
28022;SDS011;67403;50.104;8.758;2023-02-11T10:44:10;38.67;;;16.05;;
28022;SDS011;67403;50.104;8.758;2023-02-11T10:46:47;32.38;;;14.50;;
28022;SDS011;67403;50.104;8.758;2023-02-11T10:49:31;36.15;;;15.27;;
28022;SDS011;67403;50.104;8.758;2023-02-11T10:54:56;35.38;;;13.55;;
28022;SDS011;67403;50.104;8.758;2023-02-11T10:57:26;32.75;;;15.43;;
28022;SDS011;67403;50.104;8.758;2023-02-11T10:59:57;30.67;;;15.15;;
28022;SDS011;67403;50.104;8.758;2023-02-11T11:02:27;38.75;;;16.10;;
28022;SDS011;67403;50.104;8.758;2023-02-11T11:05:01;35.47;;;15.30;;
28022;SDS011;67403;50.104;8.758;2023-02-11T11:07:31;34.70;;;15.63;;
28022;SDS011;67403;50.104;8.758;2023-02-11T11:10:00;36.45;;;15.55;;
28022;SDS011;67403;50.104;8.758;2023-02-11T11:12:33;29.80;;;15.40;;
28022;SDS011;67403;50.104;8.758;2023-02-11T11:15:15;35.25;;;15.43;;
28022;SDS011;67403;50.104;8.758;2023-02-11T11:17:46;40.92;;;17.08;;
28022;SDS011;67403;50.104;8.758;2023-02-11T11:20:25;31.95;;;15.77;;
28022;SDS011;67403;50.104;8.758;2023-02-11T11:23:05;34.60;;;15.95;;
28022;SDS011;67403;50.104;8.758;2023-02-11T11:25:36;35.13;;;15.82;;
28022;SDS011;67403;50.104;8.758;2023-02-11T11:28:15;34.65;;;16.05;;
28022;SDS011;67403;50.104;8.758;2023-02-11T11:33:16;33.58;;;15.77;;
28022;SDS011;67403;50.104;8.758;2023-02-11T11:35:54;37.65;;;17.08;;
28022;SDS011;67403;50.104;8.758;2023-02-11T11:38:24;31.48;;;15.45;;
28022;SDS011;67403;50.104;8.758;2023-02-11T11:41:11;30.98;;;15.93;;
28022;SDS011;67403;50.104;8.758;2023-02-11T11:43:54;33.58;;;15.95;;
28022;SDS011;67403;50.104;8.758;2023-02-11T11:46:27;37.70;;;16.40;;
28022;SDS011;67403;50.104;8.758;2023-02-11T11:49:11;31.17;;;15.68;;
28022;SDS011;67403;50.104;8.758;2023-02-11T11:51:46;36.25;;;15.50;;
28022;SDS011;67403;50.104;8.758;2023-02-11T11:54:21;34.97;;;15.40;;
28022;SDS011;67403;50.104;8.758;2023-02-11T11:56:52;32.10;;;14.50;;
28022;SDS011;67403;50.104;8.758;2023-02-11T11:59:23;36.10;;;15.77;;
28022;SDS011;67403;50.104;8.758;2023-02-11T12:01:54;32.00;;;15.32;;
28022;SDS011;67403;50.104;8.758;2023-02-11T12:04:35;28.52;;;14.52;;
28022;SDS011;67403;50.104;8.758;2023-02-11T12:07:24;33.85;;;15.93;;
28022;SDS011;67403;50.104;8.758;2023-02-11T12:10:15;33.08;;;15.20;;
28022;SDS011;67403;50.104;8.758;2023-02-11T12:12:53;38.13;;;16.55;;
28022;SDS011;67403;50.104;8.758;2023-02-11T12:15:29;33.47;;;14.63;;
28022;SDS011;67403;50.104;8.758;2023-02-11T12:18:04;33.00;;;16.10;;
28022;SDS011;67403;50.104;8.758;2023-02-11T12:20:42;34.53;;;15.82;;
28022;SDS011;67403;50.104;8.758;2023-02-11T12:23:29;34.20;;;15.38;;
28022;SDS011;67403;50.104;8.758;2023-02-11T12:28:36;34.95;;;15.82;;
28022;SDS011;67403;50.104;8.758;2023-02-11T12:31:13;36.83;;;15.82;;
28022;SDS011;67403;50.104;8.758;2023-02-11T12:33:57;30.88;;;15.82;;
28022;SDS011;67403;50.104;8.758;2023-02-11T12:36:36;37.00;;;16.45;;
28022;SDS011;67403;50.104;8.758;2023-02-11T12:39:27;37.97;;;14.75;;
28022;SDS011;67403;50.104;8.758;2023-02-11T12:42:03;29.63;;;14.00;;
28022;SDS011;67403;50.104;8.758;2023-02-11T12:45:03;30.80;;;15.07;;
28022;SDS011;67403;50.104;8.758;2023-02-11T12:47:40;32.25;;;15.50;;
28022;SDS011;67403;50.104;8.758;2023-02-11T12:50:17;36.20;;;15.13;;
28022;SDS011;67403;50.104;8.758;2023-02-11T12:53:03;38.10;;;15.90;;
28022;SDS011;67403;50.104;8.758;2023-02-11T12:55:47;31.13;;;14.95;;
28022;SDS011;67403;50.104;8.758;2023-02-11T12:58:20;33.92;;;15.65;;
28022;SDS011;67403;50.104;8.758;2023-02-11T13:00:52;37.63;;;15.20;;
28022;SDS011;67403;50.104;8.758;2023-02-11T13:03:23;33.97;;;14.15;;
28022;SDS011;67403;50.104;8.758;2023-02-11T13:05:54;37.67;;;16.65;;
28022;SDS011;67403;50.104;8.758;2023-02-11T13:08:24;32.35;;;13.93;;
28022;SDS011;67403;50.104;8.758;2023-02-11T13:10:57;33.75;;;13.65;;
28022;SDS011;67403;50.104;8.758;2023-02-11T13:13:28;34.92;;;14.80;;
28022;SDS011;67403;50.104;8.758;2023-02-11T13:16:02;34.05;;;15.05;;
28022;SDS011;67403;50.104;8.758;2023-02-11T13:18:34;32.60;;;13.30;;
28022;SDS011;67403;50.104;8.758;2023-02-11T13:21:16;35.47;;;13.95;;
28022;SDS011;67403;50.104;8.758;2023-02-11T13:23:53;33.65;;;14.27;;
28022;SDS011;67403;50.104;8.758;2023-02-11T13:26:28;30.17;;;14.07;;
28022;SDS011;67403;50.104;8.758;2023-02-11T13:29:03;28.67;;;13.70;;
28022;SDS011;67403;50.104;8.758;2023-02-11T13:31:38;29.67;;;13.82;;
28022;SDS011;67403;50.104;8.758;2023-02-11T13:34:19;25.02;;;12.57;;
28022;SDS011;67403;50.104;8.758;2023-02-11T13:36:53;30.63;;;13.95;;
28022;SDS011;67403;50.104;8.758;2023-02-11T13:39:21;28.60;;;13.35;;
28022;SDS011;67403;50.104;8.758;2023-02-11T13:41:49;32.92;;;14.05;;
28022;SDS011;67403;50.104;8.758;2023-02-11T13:44:26;32.85;;;14.13;;
28022;SDS011;67403;50.104;8.758;2023-02-11T13:47:04;28.42;;;12.95;;
28022;SDS011;67403;50.104;8.758;2023-02-11T13:49:38;22.90;;;10.90;;
28022;SDS011;67403;50.104;8.758;2023-02-11T13:52:17;30.55;;;12.70;;
28022;SDS011;67403;50.104;8.758;2023-02-11T13:54:50;25.88;;;12.30;;
28022;SDS011;67403;50.104;8.758;2023-02-11T13:57:28;25.73;;;12.10;;
28022;SDS011;67403;50.104;8.758;2023-02-11T14:00:41;33.00;;;12.65;;
28022;SDS011;67403;50.104;8.758;2023-02-11T14:03:21;28.67;;;12.63;;
28022;SDS011;67403;50.104;8.758;2023-02-11T14:06:12;26.73;;;12.73;;
28022;SDS011;67403;50.104;8.758;2023-02-11T14:12:15;24.35;;;11.90;;
28022;SDS011;67403;50.104;8.758;2023-02-11T14:14:59;28.42;;;12.70;;
28022;SDS011;67403;50.104;8.758;2023-02-11T14:17:42;23.45;;;11.27;;
28022;SDS011;67403;50.104;8.758;2023-02-11T14:22:58;24.83;;;12.10;;
28022;SDS011;67403;50.104;8.758;2023-02-11T14:25:25;27.65;;;11.68;;
28022;SDS011;67403;50.104;8.758;2023-02-11T14:27:52;24.58;;;11.25;;
28022;SDS011;67403;50.104;8.758;2023-02-11T14:30:42;27.77;;;11.57;;
28022;SDS011;67403;50.104;8.758;2023-02-11T14:33:18;25.85;;;11.75;;
28022;SDS011;67403;50.104;8.758;2023-02-11T14:36:04;24.42;;;11.20;;
28022;SDS011;67403;50.104;8.758;2023-02-11T14:38:43;24.80;;;12.45;;
28022;SDS011;67403;50.104;8.758;2023-02-11T14:41:21;27.30;;;12.05;;
28022;SDS011;67403;50.104;8.758;2023-02-11T14:43:50;25.88;;;11.52;;
28022;SDS011;67403;50.104;8.758;2023-02-11T14:46:22;32.63;;;12.48;;
28022;SDS011;67403;50.104;8.758;2023-02-11T14:48:52;32.72;;;11.95;;
28022;SDS011;67403;50.104;8.758;2023-02-11T14:51:23;21.45;;;10.68;;
28022;SDS011;67403;50.104;8.758;2023-02-11T14:53:52;24.15;;;10.73;;
28022;SDS011;67403;50.104;8.758;2023-02-11T14:56:25;23.45;;;10.95;;
28022;SDS011;67403;50.104;8.758;2023-02-11T14:58:55;29.58;;;11.15;;
28022;SDS011;67403;50.104;8.758;2023-02-11T15:01:26;26.65;;;11.93;;
28022;SDS011;67403;50.104;8.758;2023-02-11T15:03:55;24.27;;;10.88;;
28022;SDS011;67403;50.104;8.758;2023-02-11T15:06:24;22.83;;;11.23;;
28022;SDS011;67403;50.104;8.758;2023-02-11T15:08:54;23.98;;;10.90;;
28022;SDS011;67403;50.104;8.758;2023-02-11T15:11:25;24.80;;;10.57;;
28022;SDS011;67403;50.104;8.758;2023-02-11T15:13:54;23.27;;;10.77;;